Terminal Aerodrome Forecast
Issued by NWS

Home | Current Version | Previous Version | Text Only | Print | Product List | Glossary On
Versions: 1 2 3 4 5 6 7 8 9 10 11 12 13
000
FTUS41 KLWX 252300
TAFMTN
TAF
KMTN 252336Z 2600/2624 16005KT P6SM FEW250
     FM261600 19009KT P6SM BKN050 BKN250
      AMD NOT SKED 2602/2612=

USA.gov is the U.S. government's official web portal to all federal, state and local government web resources and services.